createdAt,value
2019-03-16T00:01:57.531Z,18.60
2019-03-16T00:04:21.624Z,18.60
2019-03-16T00:06:47.917Z,18.60
2019-03-16T00:09:14.261Z,18.60
2019-03-16T00:11:40.580Z,18.60
2019-03-16T00:14:06.891Z,18.60
2019-03-16T00:16:33.204Z,18.50
2019-03-16T00:18:59.497Z,18.50
2019-03-16T00:21:25.818Z,18.50
2019-03-16T00:23:52.207Z,18.50
2019-03-16T00:26:18.529Z,18.50
2019-03-16T00:28:45.158Z,18.40
2019-03-16T00:31:11.651Z,18.40
2019-03-16T00:33:38.198Z,18.40
2019-03-16T00:36:04.478Z,18.40
2019-03-16T00:38:30.803Z,18.40
2019-03-16T00:40:57.102Z,18.40
2019-03-16T00:43:23.713Z,18.50
2019-03-16T00:45:50.145Z,18.50
2019-03-16T00:48:16.453Z,18.40
2019-03-16T00:50:43.161Z,18.50
2019-03-16T00:53:09.720Z,18.50
2019-03-16T00:55:36.235Z,18.40
2019-03-16T00:58:02.643Z,18.40
2019-03-16T01:00:29.321Z,18.40
2019-03-16T01:02:55.777Z,18.40
2019-03-16T01:05:22.175Z,18.40
2019-03-16T01:07:48.482Z,18.30
2019-03-16T01:10:14.923Z,18.40
2019-03-16T01:12:41.337Z,18.40
2019-03-16T01:15:09.877Z,18.40
2019-03-16T01:17:36.503Z,18.30
2019-03-16T01:20:05.935Z,18.30
2019-03-16T01:22:32.448Z,18.30
2019-03-16T01:24:58.956Z,18.40
2019-03-16T01:27:25.597Z,18.30
2019-03-16T01:29:51.989Z,18.30
2019-03-16T01:32:18.405Z,18.30
2019-03-16T01:34:44.700Z,18.30
2019-03-16T01:37:11.105Z,18.30
2019-03-16T01:39:37.430Z,18.30
2019-03-16T01:42:04.028Z,18.30
2019-03-16T01:44:30.331Z,18.30
2019-03-16T01:46:56.864Z,18.30
2019-03-16T01:49:23.879Z,18.30
2019-03-16T01:51:50.534Z,18.30
2019-03-16T01:54:16.826Z,18.30
2019-03-16T01:56:43.330Z,18.30
2019-03-16T01:59:09.838Z,18.30
2019-03-16T02:01:36.346Z,18.30
2019-03-16T02:04:02.666Z,18.30
2019-03-16T02:06:29.237Z,18.30
2019-03-16T02:08:55.760Z,18.30
2019-03-16T02:11:22.381Z,18.30
2019-03-16T02:13:48.694Z,18.30
2019-03-16T02:16:15.012Z,18.30
2019-03-16T02:18:41.749Z,18.30
2019-03-16T02:21:08.262Z,18.20
2019-03-16T02:23:35.132Z,18.30
2019-03-16T02:26:01.434Z,18.30
2019-03-16T02:28:27.881Z,18.30
2019-03-16T02:30:54.508Z,18.30
2019-03-16T02:33:20.907Z,18.20
2019-03-16T02:35:47.315Z,18.20
2019-03-16T02:38:13.923Z,18.20
2019-03-16T02:40:40.356Z,18.20
2019-03-16T02:43:06.788Z,18.20
2019-03-16T02:45:33.185Z,18.20
2019-03-16T02:47:59.593Z,18.20
2019-03-16T02:50:25.918Z,18.20
2019-03-16T02:52:52.327Z,18.20
2019-03-16T02:55:18.627Z,18.20
2019-03-16T02:57:45.245Z,18.20
2019-03-16T03:00:12.224Z,18.20
2019-03-16T03:02:39.362Z,18.20
2019-03-16T03:05:07.990Z,18.10
2019-03-16T03:07:34.494Z,18.10
2019-03-16T03:10:01.091Z,18.10
2019-03-16T03:12:27.735Z,18.10
2019-03-16T03:14:54.075Z,18.10
2019-03-16T03:17:20.458Z,18.10
2019-03-16T03:19:46.880Z,18.10
2019-03-16T03:22:13.416Z,18.10
2019-03-16T03:24:43.928Z,18.10
2019-03-16T03:27:08.239Z,18.10
2019-03-16T03:29:34.667Z,18.10
2019-03-16T03:32:01.071Z,18.10
2019-03-16T03:34:27.745Z,18.10
2019-03-16T03:36:54.031Z,18.10
2019-03-16T03:39:20.335Z,18.10
2019-03-16T03:41:46.760Z,18.10
2019-03-16T03:44:13.166Z,18.10
2019-03-16T03:46:39.507Z,18.10
2019-03-16T03:49:05.800Z,18.10
2019-03-16T03:51:32.119Z,18.10
2019-03-16T03:53:58.584Z,18.10
2019-03-16T03:56:24.967Z,18.10
2019-03-16T03:58:51.390Z,18.20
2019-03-16T04:01:17.696Z,18.20
2019-03-16T04:03:44.007Z,18.30
2019-03-16T04:06:10.429Z,18.30
2019-03-16T04:08:36.942Z,18.40
2019-03-16T04:11:03.518Z,18.50
2019-03-16T04:13:37.764Z,18.50
2019-03-16T04:16:04.606Z,18.50
2019-03-16T04:18:30.911Z,18.50
2019-03-16T04:20:57.330Z,18.50
2019-03-16T04:23:23.854Z,18.50
2019-03-16T04:25:50.158Z,18.50
2019-03-16T04:28:21.877Z,18.50
2019-03-16T04:31:05.817Z,18.50
2019-03-16T04:33:40.227Z,18.50
2019-03-16T04:36:05.426Z,18.50
2019-03-16T04:38:31.726Z,18.50
2019-03-16T04:40:58.147Z,18.50
2019-03-16T04:43:24.461Z,18.50
2019-03-16T04:45:50.762Z,18.50
2019-03-16T04:48:17.089Z,18.50
2019-03-16T04:50:43.616Z,18.50
2019-03-16T04:53:09.926Z,18.50
2019-03-16T04:55:36.340Z,18.50
2019-03-16T04:58:02.633Z,18.50
2019-03-16T05:00:33.011Z,18.50
2019-03-16T05:02:59.601Z,18.50
2019-03-16T05:05:26.289Z,18.50
2019-03-16T05:07:52.565Z,18.50
2019-03-16T05:10:18.965Z,18.50
2019-03-16T05:12:45.631Z,18.40
2019-03-16T05:15:12.241Z,18.50
2019-03-16T05:17:38.765Z,18.50
2019-03-16T05:20:08.587Z,18.50
2019-03-16T05:22:34.989Z,18.50
2019-03-16T05:25:01.714Z,18.40
2019-03-16T05:27:28.226Z,18.40
2019-03-16T05:29:54.529Z,18.40
2019-03-16T05:32:20.949Z,18.40
2019-03-16T05:34:56.408Z,18.40
2019-03-16T05:37:15.562Z,18.40
2019-03-16T05:39:42.017Z,18.40
2019-03-16T05:42:08.525Z,18.40
2019-03-16T05:44:35.192Z,18.40
2019-03-16T05:47:01.598Z,18.40
2019-03-16T05:49:28.024Z,18.40
2019-03-16T05:51:54.785Z,18.40
2019-03-16T05:54:21.413Z,18.40
2019-03-16T05:56:47.818Z,18.40
2019-03-16T05:59:14.224Z,18.40
2019-03-16T06:01:40.778Z,18.40
2019-03-16T06:04:07.437Z,18.40
2019-03-16T06:06:34.069Z,18.40
2019-03-16T06:09:00.682Z,18.40
2019-03-16T06:11:26.985Z,18.40
2019-03-16T06:13:53.280Z,18.40
2019-03-16T06:16:19.581Z,18.40
2019-03-16T06:18:46.077Z,18.40
2019-03-16T06:21:12.469Z,18.40
2019-03-16T06:23:39.737Z,17.10
2019-03-16T06:26:06.222Z,15.20
2019-03-16T06:28:32.617Z,16.10
2019-03-16T06:30:58.944Z,16.70
2019-03-16T06:33:25.353Z,17.00
2019-03-16T06:35:52.267Z,17.30
2019-03-16T06:38:18.678Z,17.40
2019-03-16T06:40:45.094Z,17.50
2019-03-16T06:43:11.516Z,17.60
2019-03-16T06:45:37.914Z,17.70
2019-03-16T06:48:04.201Z,17.70
2019-03-16T06:50:30.745Z,17.70
2019-03-16T06:52:57.165Z,17.80
2019-03-16T06:55:23.493Z,17.80
2019-03-16T06:57:49.889Z,17.80
2019-03-16T07:00:16.892Z,17.80
2019-03-16T07:02:43.322Z,17.90
2019-03-16T07:05:10.525Z,17.80
2019-03-16T07:07:37.053Z,17.90
2019-03-16T07:10:06.657Z,17.90
2019-03-16T07:12:34.841Z,17.90
2019-03-16T07:15:01.499Z,17.90
2019-03-16T07:17:28.048Z,17.90
2019-03-16T07:19:54.417Z,17.90
2019-03-16T07:22:20.951Z,17.90
2019-03-16T07:24:47.271Z,17.90
2019-03-16T07:27:25.736Z,18.00
2019-03-16T07:29:41.684Z,18.00
2019-03-16T07:32:08.229Z,17.90
2019-03-16T07:34:34.813Z,17.90
2019-03-16T07:37:01.448Z,18.00
2019-03-16T07:39:27.749Z,18.00
2019-03-16T07:41:54.060Z,18.10
2019-03-16T07:44:20.394Z,18.00
2019-03-16T07:46:47.057Z,18.00
2019-03-16T07:49:13.667Z,18.10
2019-03-16T07:51:39.984Z,18.10
2019-03-16T07:54:06.301Z,18.10
2019-03-16T07:56:32.735Z,18.10
2019-03-16T07:58:59.128Z,18.10
2019-03-16T08:01:25.643Z,18.10
2019-03-16T08:03:52.162Z,18.20
2019-03-16T08:06:18.800Z,18.10
2019-03-16T08:08:46.291Z,18.20
2019-03-16T08:11:12.876Z,18.20
2019-03-16T08:13:39.289Z,18.20
2019-03-16T08:16:05.920Z,18.30
2019-03-16T08:18:32.318Z,18.30
2019-03-16T08:20:58.631Z,18.30
2019-03-16T08:23:25.037Z,18.30
2019-03-16T08:25:51.345Z,18.30
2019-03-16T08:28:17.689Z,18.30
2019-03-16T08:30:44.513Z,18.40
2019-03-16T08:33:11.101Z,18.40
2019-03-16T08:35:38.560Z,18.40
2019-03-16T08:38:05.619Z,18.40
2019-03-16T08:40:32.073Z,18.50
2019-03-16T08:42:58.380Z,18.60
2019-03-16T08:45:24.696Z,18.60
2019-03-16T08:47:51.216Z,18.70
2019-03-16T08:50:17.490Z,18.80
2019-03-16T08:52:44.010Z,18.80
2019-03-16T08:55:10.412Z,18.90
2019-03-16T08:57:37.037Z,18.90
2019-03-16T09:00:11.938Z,19.00
2019-03-16T09:02:38.568Z,19.00
2019-03-16T09:05:06.386Z,19.10
2019-03-16T09:07:32.901Z,19.10
2019-03-16T09:09:59.444Z,19.10
2019-03-16T09:12:25.751Z,19.10
2019-03-16T09:14:52.199Z,19.20
2019-03-16T09:17:18.701Z,19.20
2019-03-16T09:19:45.261Z,19.20
2019-03-16T09:22:11.601Z,19.10
2019-03-16T09:24:37.994Z,19.10
2019-03-16T09:27:04.319Z,19.20
2019-03-16T09:29:30.640Z,19.30
2019-03-16T09:31:56.937Z,19.30
2019-03-16T09:34:23.359Z,19.40
2019-03-16T09:36:49.768Z,19.40
2019-03-16T09:39:16.085Z,19.50
2019-03-16T09:41:42.823Z,19.60
2019-03-16T09:44:09.227Z,19.60
2019-03-16T09:46:35.557Z,19.70
2019-03-16T09:49:02.089Z,19.70
2019-03-16T09:51:28.628Z,19.70
2019-03-16T09:53:55.371Z,19.70
2019-03-16T09:56:21.861Z,19.80
2019-03-16T09:58:48.196Z,19.80
2019-03-16T10:01:15.527Z,19.80
2019-03-16T10:03:42.279Z,19.90
2019-03-16T10:06:08.672Z,20.00
2019-03-16T10:08:35.074Z,20.00
2019-03-16T10:11:01.488Z,20.00
2019-03-16T10:13:27.791Z,20.10
2019-03-16T10:15:54.212Z,20.20
2019-03-16T10:18:21.048Z,20.30
2019-03-16T10:20:47.513Z,20.40
2019-03-16T10:23:13.769Z,20.50
2019-03-16T10:25:40.190Z,20.60
2019-03-16T10:28:06.491Z,20.70
2019-03-16T10:30:32.781Z,20.80
2019-03-16T10:32:59.329Z,20.90
2019-03-16T10:35:35.854Z,21.00
2019-03-16T10:38:02.573Z,21.10
2019-03-16T10:40:29.028Z,21.20
2019-03-16T10:42:55.829Z,21.20
2019-03-16T10:45:22.162Z,21.20
2019-03-16T10:47:48.549Z,21.30
2019-03-16T10:50:15.019Z,21.40
2019-03-16T10:52:41.545Z,21.50
2019-03-16T10:55:07.972Z,21.50
2019-03-16T10:57:34.518Z,21.50
2019-03-16T11:00:01.054Z,21.40
2019-03-16T11:02:27.694Z,21.40
2019-03-16T11:04:54.220Z,21.40
2019-03-16T11:07:20.731Z,21.40
2019-03-16T11:09:47.148Z,21.40
2019-03-16T11:12:13.957Z,21.40
2019-03-16T11:14:41.255Z,21.40
2019-03-16T11:17:07.722Z,21.40
2019-03-16T11:19:34.121Z,21.50
2019-03-16T11:22:00.525Z,21.50
2019-03-16T11:24:27.013Z,21.50
2019-03-16T11:26:53.537Z,21.00
2019-03-16T11:29:20.083Z,20.70
2019-03-16T11:31:46.629Z,20.70
2019-03-16T11:34:13.056Z,20.60
2019-03-16T11:36:39.458Z,20.70
2019-03-16T11:39:07.332Z,21.00
2019-03-16T11:41:33.729Z,21.20
2019-03-16T11:44:00.127Z,21.40
2019-03-16T11:46:26.454Z,21.60
2019-03-16T11:48:52.757Z,21.70
2019-03-16T11:51:19.311Z,21.70
2019-03-16T11:53:45.868Z,21.70
2019-03-16T11:56:18.031Z,21.80
2019-03-16T11:58:40.725Z,21.90
2019-03-16T12:01:07.125Z,21.90
2019-03-16T12:03:36.514Z,21.80
2019-03-16T12:06:03.032Z,21.80
2019-03-16T12:08:52.404Z,21.80
2019-03-16T12:11:18.713Z,21.80
2019-03-16T12:13:45.244Z,21.90
2019-03-16T12:16:11.659Z,21.90
2019-03-16T12:18:38.166Z,21.90
2019-03-16T12:21:04.519Z,22.00
2019-03-16T12:23:30.804Z,22.10
2019-03-16T12:25:57.433Z,22.20
2019-03-16T12:28:23.707Z,22.20
2019-03-16T12:30:50.010Z,22.30
2019-03-16T12:33:16.744Z,22.30
2019-03-16T12:35:43.147Z,22.30
2019-03-16T12:38:09.653Z,22.30
2019-03-16T12:40:36.062Z,22.40
2019-03-16T12:43:02.471Z,22.40
2019-03-16T12:45:28.902Z,22.40
2019-03-16T12:47:55.302Z,22.40
2019-03-16T12:50:21.709Z,22.40
2019-03-16T12:52:48.006Z,22.40
2019-03-16T12:55:14.306Z,22.40
2019-03-16T12:57:40.879Z,22.50
2019-03-16T13:00:18.675Z,22.50
2019-03-16T13:02:45.053Z,22.50
2019-03-16T13:05:11.683Z,22.50
2019-03-16T13:07:37.983Z,22.50
2019-03-16T13:10:07.990Z,22.50
2019-03-16T13:12:34.403Z,22.50
2019-03-16T13:15:00.750Z,22.60
2019-03-16T13:17:27.538Z,22.60
2019-03-16T13:19:53.831Z,22.60
2019-03-16T13:22:20.353Z,22.60
2019-03-16T13:24:47.119Z,22.60
2019-03-16T13:27:13.443Z,22.60
2019-03-16T13:29:39.851Z,22.70
2019-03-16T13:32:06.148Z,22.70
2019-03-16T13:34:32.666Z,22.80
2019-03-16T13:36:58.971Z,22.70
2019-03-16T13:39:25.292Z,22.70
2019-03-16T13:41:52.001Z,22.80
2019-03-16T13:44:18.405Z,22.80
2019-03-16T13:46:44.801Z,22.80
2019-03-16T13:49:11.203Z,22.80
2019-03-16T13:51:37.529Z,22.90
2019-03-16T13:54:03.816Z,22.90
2019-03-16T13:56:30.229Z,22.90
2019-03-16T13:58:56.657Z,22.90
2019-03-16T14:01:22.945Z,22.90
2019-03-16T14:03:49.246Z,23.00
2019-03-16T14:06:15.887Z,23.10
2019-03-16T14:08:42.399Z,23.10
2019-03-16T14:11:08.730Z,23.10
2019-03-16T14:13:35.157Z,23.10
2019-03-16T14:16:01.565Z,23.10
2019-03-16T14:18:27.872Z,23.20
2019-03-16T14:20:54.384Z,23.20
2019-03-16T14:23:20.679Z,23.20
2019-03-16T14:25:46.992Z,23.20
2019-03-16T14:28:13.389Z,23.20
2019-03-16T14:30:41.226Z,23.20
2019-03-16T14:33:07.945Z,23.20
2019-03-16T14:35:34.205Z,23.30
2019-03-16T14:38:00.667Z,23.20
2019-03-16T14:40:27.089Z,23.20
2019-03-16T14:42:53.679Z,23.30
2019-03-16T14:45:20.397Z,23.30
2019-03-16T14:47:46.904Z,23.30
2019-03-16T14:50:17.130Z,23.30
2019-03-16T14:52:43.657Z,22.70
2019-03-16T14:55:10.205Z,21.60
2019-03-16T14:57:36.841Z,21.50
2019-03-16T15:00:06.358Z,21.80
2019-03-16T15:02:32.874Z,22.20
2019-03-16T15:04:59.169Z,22.40
2019-03-16T15:07:26.706Z,22.60
2019-03-16T15:09:53.164Z,22.70
2019-03-16T15:12:20.036Z,22.80
2019-03-16T15:14:46.357Z,23.00
2019-03-16T15:17:12.677Z,23.00
2019-03-16T15:19:39.424Z,23.00
2019-03-16T15:22:06.019Z,23.10
2019-03-16T15:24:32.350Z,23.20
2019-03-16T15:26:59.189Z,23.20
2019-03-16T15:29:25.687Z,23.20
2019-03-16T15:31:52.209Z,23.20
2019-03-16T15:34:18.722Z,23.30
2019-03-16T15:36:45.270Z,23.30
2019-03-16T15:39:11.655Z,23.30
2019-03-16T15:41:37.985Z,23.30
2019-03-16T15:44:04.304Z,23.40
2019-03-16T15:46:30.821Z,23.40
2019-03-16T15:48:57.647Z,23.40
2019-03-16T15:51:25.163Z,23.40
2019-03-16T15:53:51.593Z,23.40
2019-03-16T15:56:17.920Z,23.40
2019-03-16T15:58:44.209Z,23.50
2019-03-16T16:01:10.734Z,23.50
2019-03-16T16:03:37.131Z,23.50
2019-03-16T16:06:03.650Z,23.50
2019-03-16T16:08:30.098Z,23.50
2019-03-16T16:11:01.256Z,23.60
2019-03-16T16:13:25.027Z,23.60
2019-03-16T16:15:51.327Z,23.60
2019-03-16T16:18:17.766Z,23.60
2019-03-16T16:20:44.077Z,23.60
2019-03-16T16:23:10.790Z,23.60
2019-03-16T16:25:37.181Z,23.60
2019-03-16T16:28:03.582Z,23.60
2019-03-16T16:30:30.334Z,23.70
2019-03-16T16:32:56.911Z,23.70
2019-03-16T16:35:23.192Z,23.60
2019-03-16T16:37:50.050Z,23.60
2019-03-16T16:40:21.805Z,23.60
2019-03-16T16:42:48.417Z,23.60
2019-03-16T16:45:16.254Z,23.60
2019-03-16T16:47:42.541Z,23.60
2019-03-16T16:50:15.469Z,23.70
2019-03-16T16:52:41.865Z,23.60
2019-03-16T16:55:08.971Z,23.70
2019-03-16T16:57:35.402Z,23.60
2019-03-16T17:00:03.423Z,23.60
2019-03-16T17:02:29.844Z,23.60
2019-03-16T17:04:56.226Z,23.60
2019-03-16T17:07:22.836Z,23.60
2019-03-16T17:09:49.470Z,23.60
2019-03-16T17:12:15.933Z,23.60
2019-03-16T17:14:42.437Z,23.60
2019-03-16T17:17:09.086Z,23.60
2019-03-16T17:19:35.499Z,23.60
2019-03-16T17:22:01.812Z,23.60
2019-03-16T17:24:28.258Z,23.60
2019-03-16T17:26:54.573Z,23.60
2019-03-16T17:29:23.265Z,23.60
2019-03-16T17:31:56.093Z,23.50
2019-03-16T17:34:22.521Z,23.50
2019-03-16T17:36:49.153Z,23.50
2019-03-16T17:39:15.578Z,23.50
2019-03-16T17:41:42.031Z,23.50
2019-03-16T17:44:08.434Z,23.50
2019-03-16T17:46:34.849Z,23.50
2019-03-16T17:49:01.174Z,23.50
2019-03-16T17:51:27.682Z,23.40
2019-03-16T17:53:54.190Z,23.40
2019-03-16T17:56:20.609Z,23.40
2019-03-16T17:58:46.899Z,23.40
2019-03-16T18:01:13.433Z,23.40
2019-03-16T18:03:39.937Z,23.30
2019-03-16T18:06:06.338Z,23.30
2019-03-16T18:08:32.654Z,23.20
2019-03-16T18:10:59.854Z,23.20
2019-03-16T18:13:26.166Z,23.20
2019-03-16T18:15:52.685Z,23.20
2019-03-16T18:18:18.968Z,23.10
2019-03-16T18:20:45.624Z,23.10
2019-03-16T18:23:11.906Z,23.10
2019-03-16T18:25:38.381Z,23.00
2019-03-16T18:28:04.642Z,23.00
2019-03-16T18:30:31.055Z,23.00
2019-03-16T18:32:57.466Z,23.00
2019-03-16T18:35:23.863Z,23.00
2019-03-16T18:37:50.279Z,23.00
2019-03-16T18:40:16.682Z,22.90
2019-03-16T18:42:42.973Z,22.90
2019-03-16T18:45:24.212Z,22.90
2019-03-16T18:47:50.621Z,22.90
2019-03-16T18:50:16.957Z,22.80
2019-03-16T18:52:43.330Z,22.80
2019-03-16T18:55:11.332Z,22.80
2019-03-16T18:57:37.746Z,22.70
2019-03-16T19:00:07.746Z,22.70
2019-03-16T19:02:34.073Z,22.70
2019-03-16T19:05:00.565Z,22.70
2019-03-16T19:07:26.896Z,22.70
2019-03-16T19:09:53.764Z,22.70
2019-03-16T19:12:20.354Z,22.70
2019-03-16T19:14:46.777Z,22.70
2019-03-16T19:17:13.181Z,22.70
2019-03-16T19:19:39.489Z,22.80
2019-03-16T19:22:05.824Z,22.80
2019-03-16T19:24:32.230Z,22.80
2019-03-16T19:26:59.735Z,22.80
2019-03-16T19:29:26.051Z,22.80
2019-03-16T19:31:52.447Z,22.80
2019-03-16T19:34:18.985Z,22.70
2019-03-16T19:36:45.400Z,22.50
2019-03-16T19:39:11.817Z,22.50
2019-03-16T19:41:39.258Z,22.40
2019-03-16T19:44:06.520Z,22.40
2019-03-16T19:46:33.065Z,22.50
2019-03-16T19:48:59.480Z,22.60
2019-03-16T19:51:25.826Z,22.60
2019-03-16T19:53:52.234Z,22.60
2019-03-16T19:56:18.528Z,22.70
2019-03-16T19:58:44.861Z,22.70
2019-03-16T20:01:11.482Z,22.70
2019-03-16T20:03:37.810Z,22.70
2019-03-16T20:06:04.097Z,22.60
2019-03-16T20:08:30.507Z,22.70
2019-03-16T20:11:05.989Z,22.60
2019-03-16T20:13:25.210Z,22.60
2019-03-16T20:15:51.610Z,22.60
2019-03-16T20:18:17.910Z,22.60
2019-03-16T20:20:44.311Z,22.50
2019-03-16T20:23:10.745Z,22.50
2019-03-16T20:25:37.043Z,22.50
2019-03-16T20:28:03.563Z,22.50
2019-03-16T20:30:29.854Z,22.50
2019-03-16T20:33:03.841Z,22.40
2019-03-16T20:35:24.392Z,22.30
2019-03-16T20:37:50.793Z,22.30
2019-03-16T20:40:17.232Z,22.30
2019-03-16T20:42:43.748Z,22.30
2019-03-16T20:45:10.991Z,22.30
2019-03-16T20:47:37.507Z,22.20
2019-03-16T20:50:07.703Z,22.20
2019-03-16T20:52:34.021Z,22.10
2019-03-16T20:55:00.554Z,22.10
2019-03-16T20:57:26.847Z,22.10
2019-03-16T20:59:53.621Z,22.00
2019-03-16T21:02:19.927Z,21.90
2019-03-16T21:04:46.255Z,21.90
2019-03-16T21:07:12.549Z,21.80
2019-03-16T21:09:38.975Z,21.80
2019-03-16T21:12:05.278Z,21.80
2019-03-16T21:14:31.793Z,21.70
2019-03-16T21:16:58.212Z,21.70
2019-03-16T21:19:24.624Z,21.70
2019-03-16T21:21:51.121Z,21.70
2019-03-16T21:24:17.442Z,21.60
2019-03-16T21:26:52.293Z,21.60
2019-03-16T21:29:12.319Z,21.60
2019-03-16T21:31:38.607Z,21.50
2019-03-16T21:34:04.894Z,21.50
2019-03-16T21:36:41.060Z,21.50
2019-03-16T21:38:59.625Z,21.40
2019-03-16T21:41:26.298Z,21.40
2019-03-16T21:43:53.383Z,21.40
2019-03-16T21:46:19.667Z,21.40
2019-03-16T21:48:45.961Z,21.40
2019-03-16T21:51:12.479Z,21.40
2019-03-16T21:53:38.777Z,21.30
2019-03-16T21:56:05.201Z,21.30
2019-03-16T21:58:31.534Z,21.30
2019-03-16T22:00:57.947Z,21.30
2019-03-16T22:03:24.248Z,21.30
2019-03-16T22:05:50.664Z,21.30
2019-03-16T22:08:17.331Z,21.30
2019-03-16T22:10:44.034Z,21.30
2019-03-16T22:13:10.334Z,21.20
2019-03-16T22:15:36.658Z,21.10
2019-03-16T22:18:02.985Z,21.20
2019-03-16T22:20:29.491Z,21.10
2019-03-16T22:22:56.210Z,21.10
2019-03-16T22:25:22.510Z,21.10
2019-03-16T22:27:51.525Z,21.10
2019-03-16T22:30:17.106Z,21.00
2019-03-16T22:32:43.409Z,21.00
2019-03-16T22:35:10.041Z,21.00
2019-03-16T22:37:36.449Z,21.00
2019-03-16T22:40:04.781Z,21.00
2019-03-16T22:42:31.190Z,21.00
2019-03-16T22:44:57.600Z,21.00
2019-03-16T22:47:24.014Z,21.00
2019-03-16T22:49:50.418Z,20.90
2019-03-16T22:52:17.105Z,20.90
2019-03-16T22:54:43.502Z,20.90
2019-03-16T22:57:10.033Z,20.90
2019-03-16T22:59:36.465Z,20.90
2019-03-16T23:02:03.354Z,20.80
2019-03-16T23:04:29.653Z,20.80
2019-03-16T23:06:55.950Z,20.80
2019-03-16T23:09:22.257Z,20.80
2019-03-16T23:11:48.881Z,20.80
2019-03-16T23:14:15.274Z,20.70
2019-03-16T23:16:41.795Z,20.70
2019-03-16T23:19:08.201Z,20.70
2019-03-16T23:21:34.703Z,20.70
2019-03-16T23:24:01.343Z,20.70
2019-03-16T23:26:37.891Z,20.60
2019-03-16T23:28:55.825Z,20.60
2019-03-16T23:31:22.245Z,20.60
2019-03-16T23:33:48.530Z,20.60
2019-03-16T23:36:15.174Z,20.60
2019-03-16T23:38:41.797Z,20.60
2019-03-16T23:41:08.098Z,20.50
2019-03-16T23:43:34.864Z,20.50
2019-03-16T23:46:01.143Z,20.50
2019-03-16T23:48:27.959Z,20.50
2019-03-16T23:50:54.270Z,20.50
2019-03-16T23:53:20.791Z,20.40
2019-03-16T23:55:47.083Z,20.40
2019-03-16T23:58:13.497Z,20.40
